createdAt,value
2022-09-08T08:01:38.331Z,11.00
2022-09-08T08:10:23.153Z,9.52
2022-09-08T08:13:05.766Z,11.02
2022-09-08T08:23:35.963Z,9.43
2022-09-08T08:33:29.433Z,10.80
2022-09-08T08:44:37.716Z,9.75
2022-09-08T08:55:30.805Z,11.88
2022-09-08T09:05:50.022Z,10.63
2022-09-08T09:09:17.121Z,10.68
2022-09-08T09:12:37.823Z,12.55
2022-09-08T09:16:07.452Z,11.93
2022-09-08T09:22:59.884Z,10.73
2022-09-08T09:31:32.028Z,10.05
2022-09-08T09:34:52.581Z,10.80
2022-09-08T09:48:55.734Z,9.65
2022-09-08T09:51:52.075Z,9.57
2022-09-08T09:54:58.470Z,9.90
2022-09-08T09:58:19.690Z,8.18
2022-09-08T10:01:27.884Z,7.18
2022-09-08T10:04:19.814Z,7.20
2022-09-08T10:13:39.023Z,6.62
2022-09-08T10:16:33.631Z,6.70
2022-09-08T10:19:29.364Z,6.53
2022-09-08T10:22:55.863Z,6.37
2022-09-08T10:26:17.726Z,8.27
2022-09-08T10:30:12.400Z,8.45
2022-09-08T10:32:55.871Z,10.20
2022-09-08T10:36:09.979Z,10.35
2022-09-08T10:39:06.285Z,10.82
2022-09-08T10:42:20.471Z,7.93
2022-09-08T10:45:35.914Z,5.95
2022-09-08T10:48:41.645Z,5.62
2022-09-08T10:51:41.173Z,5.70
2022-09-08T10:54:44.469Z,6.30
2022-09-08T10:57:48.246Z,6.62
2022-09-08T11:00:35.104Z,6.82
2022-09-08T11:03:26.784Z,6.15
2022-09-08T11:06:08.857Z,6.55
2022-09-08T11:09:13.858Z,6.15
2022-09-08T11:11:56.473Z,5.93
2022-09-08T11:14:58.473Z,5.53
2022-09-08T11:18:10.205Z,5.68
2022-09-08T11:21:19.815Z,5.57
2022-09-08T11:24:32.287Z,6.90
2022-09-08T11:27:12.967Z,7.75
2022-09-08T11:29:45.952Z,7.97
2022-09-08T11:32:16.757Z,8.00
2022-09-08T11:35:15.204Z,7.37
2022-09-08T11:38:29.323Z,7.03
2022-09-08T11:41:11.104Z,6.62
2022-09-08T11:50:44.598Z,7.87
2022-09-08T11:56:52.763Z,5.60
2022-09-08T11:59:32.633Z,6.47
2022-09-08T12:02:47.048Z,5.50
2022-09-08T12:09:11.174Z,4.82
2022-09-08T12:12:24.473Z,5.37
2022-09-08T12:15:17.255Z,5.32
2022-09-08T12:17:53.663Z,4.62
2022-09-08T12:20:48.154Z,4.40
2022-09-08T12:23:19.035Z,5.62
2022-09-08T12:26:05.423Z,6.10
2022-09-08T12:28:55.141Z,6.85
2022-09-08T12:31:59.083Z,6.85
2022-09-08T12:34:56.051Z,6.30
2022-09-08T12:37:41.904Z,7.05
2022-09-08T12:40:46.766Z,6.00
2022-09-08T12:43:23.127Z,4.93
2022-09-08T12:46:19.250Z,4.95
2022-09-08T12:49:06.438Z,5.53
2022-09-08T12:51:35.624Z,4.97
2022-09-08T12:54:28.568Z,4.93
2022-09-08T12:57:11.994Z,5.07
2022-09-08T12:59:52.133Z,5.85
2022-09-08T13:02:46.748Z,5.12
2022-09-08T13:05:37.923Z,4.97
2022-09-08T13:08:06.264Z,5.40
2022-09-08T13:10:38.384Z,4.97
2022-09-08T13:13:17.026Z,5.32
2022-09-08T13:16:06.966Z,4.72
2022-09-08T13:18:58.365Z,4.75
2022-09-08T13:22:03.229Z,4.60
2022-09-08T13:24:32.893Z,4.78
2022-09-08T13:27:09.186Z,5.30
2022-09-08T13:30:22.859Z,4.43
2022-09-08T13:32:56.504Z,4.45
2022-09-08T13:35:43.443Z,4.80
2022-09-08T13:38:37.613Z,5.18
2022-09-08T13:41:12.325Z,4.90
2022-09-08T13:44:08.293Z,5.07
2022-09-08T13:46:48.107Z,4.85
2022-09-08T13:49:23.204Z,5.47
2022-09-08T13:52:10.055Z,5.55
2022-09-08T13:54:56.716Z,5.55
2022-09-08T13:57:32.023Z,4.95
2022-09-08T14:00:19.027Z,6.12
2022-09-08T14:02:58.095Z,7.43
2022-09-08T14:05:32.533Z,6.55
2022-09-08T14:08:32.720Z,7.65
2022-09-08T14:11:25.094Z,7.22
2022-09-08T14:14:09.643Z,7.05
2022-09-08T14:16:37.386Z,7.87
2022-09-08T14:19:12.553Z,7.70
2022-09-08T14:21:48.430Z,8.40
2022-09-08T14:24:59.723Z,8.70
2022-09-08T14:27:48.973Z,8.48
2022-09-08T14:30:58.407Z,8.93
2022-09-08T14:33:55.565Z,8.10
2022-09-08T14:36:44.837Z,8.32
2022-09-08T14:39:21.653Z,8.73
2022-09-08T14:41:54.423Z,8.75
2022-09-08T14:44:42.478Z,8.32
2022-09-08T14:47:23.473Z,10.05
2022-09-08T14:50:16.955Z,9.00
2022-09-08T14:52:49.290Z,9.30
2022-09-08T14:55:38.644Z,10.20
2022-09-08T14:58:26.824Z,11.15
2022-09-08T15:00:59.829Z,9.23
2022-09-08T15:03:31.583Z,9.20
2022-09-08T15:05:59.153Z,9.15
2022-09-08T15:08:32.563Z,10.02
2022-09-08T15:11:08.754Z,9.73
2022-09-08T15:13:39.944Z,11.43
2022-09-08T15:16:21.630Z,10.90
2022-09-08T15:19:26.503Z,10.55
2022-09-08T15:21:57.238Z,10.95
2022-09-08T15:24:53.104Z,9.60
2022-09-08T15:27:28.233Z,10.40
2022-09-08T15:30:15.670Z,10.85
2022-09-08T15:33:02.153Z,9.60
2022-09-08T15:35:49.408Z,10.43
2022-09-08T15:38:37.798Z,9.15
2022-09-08T15:41:11.960Z,10.48
2022-09-08T15:44:07.104Z,11.15
2022-09-08T15:47:06.413Z,9.40
2022-09-08T15:50:04.384Z,10.40
2022-09-08T15:52:40.180Z,9.57
2022-09-08T15:55:32.230Z,9.90
2022-09-08T15:58:33.424Z,9.57
2022-09-08T16:01:07.492Z,9.52
2022-09-08T16:04:01.501Z,9.32
2022-09-08T16:06:57.435Z,9.68
2022-09-08T16:09:28.440Z,10.45
2022-09-08T16:12:11.704Z,9.05
2022-09-08T16:15:01.379Z,10.10
2022-09-08T16:17:33.498Z,8.80
2022-09-08T16:20:24.939Z,10.45
2022-09-08T16:22:55.693Z,9.98
2022-09-08T16:25:48.495Z,9.75
2022-09-08T16:28:41.594Z,8.20
2022-09-08T16:31:15.567Z,9.40
2022-09-08T16:34:07.169Z,9.02
2022-09-08T16:36:50.499Z,6.82
2022-09-08T16:39:24.088Z,6.10
2022-09-08T16:42:06.255Z,7.72
2022-09-08T16:44:53.668Z,8.07
2022-09-08T16:48:00.033Z,10.35
2022-09-08T16:50:37.434Z,11.15
2022-09-08T16:53:45.475Z,10.55
2022-09-08T16:56:42.025Z,10.15
2022-09-08T16:59:16.657Z,10.70
2022-09-08T17:01:50.621Z,10.48
2022-09-08T17:04:27.284Z,10.60
2022-09-08T17:07:05.756Z,11.60
2022-09-08T17:09:53.034Z,10.70
2022-09-08T17:12:43.603Z,9.82
2022-09-08T17:15:12.121Z,10.57
2022-09-08T17:17:42.264Z,10.40
2022-09-08T17:20:14.814Z,11.18
2022-09-08T17:22:47.994Z,11.85
2022-09-08T17:25:44.260Z,12.15
2022-09-08T17:28:17.886Z,11.02
2022-09-08T17:31:24.347Z,10.48
2022-09-08T17:34:11.914Z,10.25
2022-09-08T17:36:46.628Z,11.27
2022-09-08T17:39:45.544Z,11.52
2022-09-08T17:42:35.655Z,14.65
2022-09-08T17:45:20.974Z,13.13
2022-09-08T17:48:10.194Z,13.65
2022-09-08T17:51:04.576Z,12.23
2022-09-08T17:53:54.634Z,12.20
2022-09-08T17:56:47.066Z,12.95
2022-09-08T18:02:52.854Z,12.98
2022-09-08T18:05:23.731Z,13.60
2022-09-08T18:07:54.683Z,13.27
2022-09-08T18:10:42.701Z,14.77
2022-09-08T18:13:51.501Z,15.20
2022-09-08T18:16:31.313Z,14.73
2022-09-08T18:19:03.994Z,14.55
2022-09-08T18:21:54.924Z,13.75
2022-09-08T18:24:37.846Z,13.73
2022-09-08T18:27:42.950Z,13.25
2022-09-08T18:30:21.364Z,15.15
2022-09-08T18:33:14.305Z,13.38
2022-09-08T18:35:56.455Z,13.52
2022-09-08T18:38:37.104Z,14.50
2022-09-08T18:41:34.733Z,14.57
2022-09-08T18:44:29.993Z,16.10
2022-09-08T18:47:11.735Z,15.60
2022-09-08T18:49:50.867Z,15.75
2022-09-08T18:52:25.375Z,13.95
2022-09-08T18:55:14.259Z,13.55
2022-09-08T18:57:44.905Z,13.70
2022-09-08T19:00:21.212Z,13.02
2022-09-08T19:02:53.535Z,14.10
2022-09-08T19:05:26.633Z,13.62
2022-09-08T19:08:08.243Z,14.63
2022-09-08T19:10:43.183Z,15.32
2022-09-08T19:13:30.340Z,15.80
2022-09-08T19:16:08.218Z,13.82
2022-09-08T19:18:37.955Z,13.95
2022-09-08T19:21:08.000Z,14.75
2022-09-08T19:23:38.181Z,14.52
2022-09-08T19:26:32.503Z,14.23
2022-09-08T19:29:42.563Z,15.30
2022-09-08T19:32:40.394Z,14.13
2022-09-08T19:35:21.933Z,12.30
2022-09-08T19:37:51.194Z,12.95
2022-09-08T19:40:23.483Z,12.32
2022-09-08T19:43:02.093Z,12.07
2022-09-08T19:45:35.939Z,12.18
2022-09-08T19:48:16.574Z,11.48
2022-09-08T19:51:16.043Z,10.82
2022-09-08T19:53:49.343Z,10.30
2022-09-08T19:56:38.066Z,11.02
2022-09-08T19:59:21.253Z,10.38
2022-09-08T20:01:54.150Z,11.43
2022-09-08T20:04:25.318Z,10.38
2022-09-08T20:06:59.862Z,10.80
2022-09-08T20:09:35.914Z,11.77
2022-09-08T20:12:10.403Z,11.20
2022-09-08T20:14:57.894Z,10.75
2022-09-08T20:17:45.973Z,11.27
2022-09-08T20:20:27.858Z,10.40
2022-09-08T20:26:06.323Z,11.32
2022-09-08T20:29:03.753Z,11.00
2022-09-08T20:31:46.657Z,10.52
2022-09-08T20:34:41.753Z,12.15
2022-09-08T20:37:49.975Z,9.88
2022-09-08T20:40:24.623Z,12.05
2022-09-08T20:43:17.513Z,10.95
2022-09-08T20:45:55.803Z,10.00
2022-09-08T20:48:39.923Z,11.02
2022-09-08T20:51:13.011Z,10.00
2022-09-08T20:54:03.569Z,9.95
2022-09-08T20:56:50.083Z,11.25
2022-09-08T20:59:25.685Z,12.20
2022-09-08T21:02:12.598Z,12.95
2022-09-08T21:04:52.384Z,11.25
2022-09-08T21:07:32.551Z,13.13
2022-09-08T21:10:10.403Z,11.70
2022-09-08T21:13:01.900Z,11.82
2022-09-08T21:15:42.118Z,10.90
2022-09-08T21:18:50.193Z,12.52
2022-09-08T21:21:43.106Z,10.57
2022-09-08T21:24:30.098Z,11.07
2022-09-08T21:27:17.314Z,9.98
2022-09-08T21:30:32.303Z,10.20
2022-09-08T21:33:07.353Z,9.93
2022-09-08T21:35:42.183Z,10.90
2022-09-08T21:38:24.324Z,11.45
2022-09-08T21:40:55.063Z,9.73
2022-09-08T21:43:33.244Z,10.07
2022-09-08T21:46:23.881Z,10.80
2022-09-08T21:48:53.683Z,9.68
2022-09-08T21:51:49.493Z,10.43
2022-09-08T21:54:23.384Z,9.32
2022-09-08T21:57:03.383Z,9.52
2022-09-08T21:59:30.763Z,9.73
2022-09-08T22:02:02.676Z,10.77
2022-09-08T22:04:47.634Z,11.15
2022-09-08T22:07:27.497Z,9.73
2022-09-08T22:09:55.435Z,9.80
2022-09-08T22:12:31.006Z,9.07
2022-09-08T22:15:01.664Z,8.98
2022-09-08T22:17:50.021Z,8.43
2022-09-08T22:20:38.064Z,7.97
2022-09-08T22:23:22.194Z,9.40
2022-09-08T22:26:18.051Z,9.15
2022-09-08T22:28:48.163Z,9.80
2022-09-08T22:31:26.824Z,9.30
2022-09-08T22:34:31.977Z,10.23
2022-09-08T22:37:17.702Z,8.98
2022-09-08T22:40:04.766Z,8.52
2022-09-08T22:42:44.574Z,8.75
2022-09-08T22:45:21.111Z,8.63
2022-09-08T22:47:56.313Z,9.38
2022-09-08T22:50:46.803Z,7.40
2022-09-08T22:53:36.391Z,8.48
2022-09-08T22:56:30.544Z,9.63
2022-09-08T22:59:01.135Z,8.02
2022-09-08T23:01:34.362Z,8.45
2022-09-08T23:04:14.549Z,7.78
2022-09-08T23:06:48.014Z,8.30
2022-09-08T23:09:15.303Z,8.45
2022-09-08T23:11:50.253Z,7.70
2022-09-08T23:14:36.614Z,6.80
2022-09-08T23:17:31.815Z,7.07
2022-09-08T23:20:07.654Z,6.60
2022-09-08T23:23:10.984Z,4.85
2022-09-08T23:25:43.073Z,4.22
2022-09-08T23:28:12.875Z,4.12
2022-09-08T23:30:56.383Z,4.53
2022-09-08T23:33:28.913Z,5.32
2022-09-08T23:36:03.814Z,5.10
2022-09-08T23:38:33.045Z,4.25
2022-09-08T23:41:07.433Z,5.32
2022-09-08T23:43:42.774Z,5.18
2022-09-08T23:46:19.903Z,4.32
2022-09-08T23:48:53.723Z,5.20
2022-09-08T23:51:24.667Z,4.80
2022-09-08T23:53:57.512Z,4.53
2022-09-08T23:56:26.114Z,5.07
2022-09-08T23:58:54.023Z,5.37
